Time;durP1;ratioP1;P1;durP2;ratioP2;P2;SDS_P1;SDS_P2;PMS_P1;PMS_P2;Temp;Humidity;BMP_temperature;BMP_pressure;BME280_temperature;BME280_humidity;BME280_pressure;Samples;Min_cycle;Max_cycle;Signal;HPM_P1;HPM_P2
2024/02/11 00:01:22;;;;;;;37.15;15.07;;;;;;;-9.68;56.45;100243.19;5048457;28;20529;-62
2024/02/11 00:03:48;;;;;;;36.83;14.88;;;;;;;-9.56;55.42;100246.75;5048602;28;20029;-64
2024/02/11 00:06:14;;;;;;;40.55;15.13;;;;;;;-9.56;55.55;100244.16;5048706;28;20032;-62
2024/02/11 00:08:40;;;;;;;36.78;15.23;;;;;;;-9.54;55.27;100256.28;5049476;28;20089;-62
2024/02/11 00:11:06;;;;;;;31.23;15.35;;;;;;;-9.62;56.14;100233.75;5049690;28;20068;-63
2024/02/11 00:13:32;;;;;;;37.70;16.70;;;;;;;-9.54;55.49;100245.91;5048756;28;20802;-63
2024/02/11 00:15:59;;;;;;;40.08;16.63;;;;;;;-9.50;55.31;100244.22;5048116;28;20025;-65
2024/02/11 00:18:28;;;;;;;34.45;15.43;;;;;;;-9.57;55.49;100230.31;5048126;28;20188;-63
2024/02/11 00:20:54;;;;;;;32.35;14.52;;;;;;;-9.49;54.93;100230.38;5048425;28;20056;-62
2024/02/11 00:23:22;;;;;;;36.97;16.00;;;;;;;-9.50;55.13;100236.44;5049252;28;20041;-63
2024/02/11 00:25:53;;;;;;;32.30;15.95;;;;;;;-9.58;55.36;100227.75;5049347;28;20040;-63
2024/02/11 00:28:25;;;;;;;32.55;15.63;;;;;;;-9.56;55.79;100246.75;5030889;28;20025;-62
2024/02/11 00:30:53;;;;;;;35.25;15.05;;;;;;;-9.50;54.85;100231.25;5049526;28;20025;-63
2024/02/11 00:33:20;;;;;;;28.95;13.98;;;;;;;-9.57;54.59;100216.50;5048807;28;20036;-63
2024/02/11 00:35:46;;;;;;;35.20;15.13;;;;;;;-9.63;55.01;100226.84;5048411;28;20036;-64
2024/02/11 00:38:14;;;;;;;35.17;14.10;;;;;;;-9.70;55.12;100229.34;5047649;28;20116;-63
2024/02/11 00:40:40;;;;;;;30.05;14.73;;;;;;;-9.68;55.51;100226.78;5049647;28;20147;-63
2024/02/11 00:43:07;;;;;;;33.08;14.18;;;;;;;-9.57;55.47;100226.88;5049275;28;20029;-63
2024/02/11 00:45:35;;;;;;;33.08;13.85;;;;;;;-9.58;54.78;100231.19;5048201;28;20037;-62
2024/02/11 00:48:05;;;;;;;25.50;12.20;;;;;;;-9.81;54.49;100190.38;5047315;27;20123;-63
2024/02/11 00:50:33;;;;;;;24.58;10.95;;;;;;;-9.64;54.44;100212.13;5048050;28;20124;-63
2024/02/11 00:53:05;;;;;;;30.15;13.55;;;;;;;-9.71;54.27;100222.44;5049306;28;20056;-63
2024/02/11 00:55:33;;;;;;;31.70;12.77;;;;;;;-9.87;54.69;100229.22;5047901;28;20025;-64
2024/02/11 00:58:02;;;;;;;26.75;13.15;;;;;;;-10.01;55.09;100208.34;5048593;28;20120;-61
2024/02/11 01:00:27;;;;;;;32.92;13.00;;;;;;;-10.07;55.53;100207.41;5049116;28;20460;-61
2024/02/11 01:02:53;;;;;;;30.38;13.15;;;;;;;-10.02;54.64;100182.41;5048827;28;20029;-62
2024/02/11 01:05:19;;;;;;;23.05;11.18;;;;;;;-9.95;54.64;100218.75;5047464;28;20123;-63
2024/02/11 01:07:45;;;;;;;27.13;13.85;;;;;;;-9.99;54.89;100218.75;5047932;28;20108;-63
2024/02/11 01:10:12;;;;;;;32.70;12.07;;;;;;;-9.99;55.29;100214.41;5048572;28;20028;-62
2024/02/11 01:12:39;;;;;;;25.77;12.68;;;;;;;-10.02;54.71;100211.81;5031144;28;20060;-63
2024/02/11 01:15:06;;;;;;;37.53;13.02;;;;;;;-10.41;55.19;100163.97;5047053;28;20048;-63
2024/02/11 01:17:32;;;;;;;28.38;12.90;;;;;;;-10.17;55.67;100201.28;5030931;28;20032;-63
2024/02/11 01:19:57;;;;;;;30.08;13.45;;;;;;;-10.06;54.88;100212.63;5047618;28;20032;-63
2024/02/11 01:22:23;;;;;;;29.48;13.65;;;;;;;-10.39;54.86;100167.41;5047216;28;20029;-62
2024/02/11 01:24:48;;;;;;;28.10;13.02;;;;;;;-10.13;55.63;100226.34;5048340;28;20041;-62
2024/02/11 01:27:14;;;;;;;28.42;13.63;;;;;;;-10.02;54.52;100214.38;5031481;28;20124;-62
2024/02/11 01:29:40;;;;;;;26.00;13.88;;;;;;;-10.03;53.79;100214.34;5030836;28;20037;-62
2024/02/11 01:32:06;;;;;;;31.40;14.18;;;;;;;-10.34;55.27;100204.59;5047191;28;20025;-63
2024/02/11 01:34:32;;;;;;;22.48;10.57;;;;;;;-10.32;54.85;100204.59;5051172;28;20156;-62
2024/02/11 01:36:58;;;;;;;30.77;13.35;;;;;;;-10.35;54.91;100208.03;5055350;27;20318;-63
2024/02/11 01:39:23;;;;;;;31.35;13.43;;;;;;;-10.44;55.29;100205.34;5050537;28;20037;-62
2024/02/11 01:41:49;;;;;;;33.58;14.23;;;;;;;-10.48;55.28;100204.47;5061774;27;20023;-61
2024/02/11 01:44:17;;;;;;;30.50;13.32;;;;;;;-10.39;54.98;100195.88;5118641;27;20063;-63
2024/02/11 01:46:43;;;;;;;32.92;15.15;;;;;;;-10.57;55.52;100194.88;5120659;27;20028;-62
2024/02/11 01:49:10;;;;;;;30.05;15.20;;;;;;;-10.53;55.23;100198.34;5051616;28;20040;-63
2024/02/11 01:51:42;;;;;;;37.92;14.70;;;;;;;-10.67;55.90;100195.59;5051781;27;20049;-64
2024/02/11 01:54:12;;;;;;;33.40;14.90;;;;;;;-10.56;55.81;100196.59;5050561;28;20214;-65
2024/02/11 01:56:38;;;;;;;37.78;15.80;;;;;;;-10.55;55.52;100195.75;5033651;28;20033;-64
2024/02/11 01:59:05;;;;;;;32.28;15.25;;;;;;;-10.63;55.56;100192.19;5067353;27;20028;-64
2024/02/11 02:01:32;;;;;;;31.10;14.65;;;;;;;-10.77;55.50;100171.31;5057148;27;20025;-64
2024/02/11 02:03:58;;;;;;;33.00;14.70;;;;;;;-10.51;55.43;100190.59;5051068;28;20099;-62
2024/02/11 02:06:24;;;;;;;21.08;11.60;;;;;;;-10.37;55.14;100196.75;5050575;28;20400;-63
2024/02/11 02:08:51;;;;;;;28.70;12.60;;;;;;;-10.43;54.84;100186.38;5051578;28;20025;-64
2024/02/11 02:11:17;;;;;;;31.85;13.85;;;;;;;-10.54;55.02;100194.91;5034374;28;20036;-63
2024/02/11 02:13:43;;;;;;;29.98;13.73;;;;;;;-10.62;55.50;100193.91;5051810;27;20025;-63
2024/02/11 02:16:09;;;;;;;30.98;14.55;;;;;;;-10.79;55.64;100185.13;5053761;27;20052;-63
2024/02/11 02:18:35;;;;;;;35.78;15.55;;;;;;;-10.82;56.09;100199.75;5086461;27;20035;-62
2024/02/11 02:21:04;;;;;;;33.58;14.32;;;;;;;-10.70;55.85;100206.78;5134784;27;20058;-63
2024/02/11 02:23:30;;;;;;;30.63;12.70;;;;;;;-10.65;55.43;100199.06;5134263;27;20040;-63
2024/02/11 02:25:57;;;;;;;31.55;13.75;;;;;;;-10.69;55.73;100200.78;5134565;27;20019;-63
2024/02/11 02:28:23;;;;;;;26.85;10.98;;;;;;;-10.70;56.04;100192.97;5135016;27;20035;-62
2024/02/11 02:30:49;;;;;;;27.33;13.73;;;;;;;-10.61;55.68;100197.41;5135847;27;20035;-63
2024/02/11 02:33:15;;;;;;;27.52;13.32;;;;;;;-10.60;55.48;100207.78;5128633;27;20358;-63
2024/02/11 02:35:41;;;;;;;28.33;13.30;;;;;;;-10.66;55.66;100186.97;5134520;27;20114;-63
2024/02/11 02:38:06;;;;;;;26.52;10.93;;;;;;;-10.47;55.68;100207.91;5103023;27;20172;-63
2024/02/11 02:40:32;;;;;;;27.35;13.13;;;;;;;-10.44;55.17;100207.94;5033716;28;20429;-63
2024/02/11 02:42:58;;;;;;;25.05;12.15;;;;;;;-10.55;55.67;100206.09;5038481;28;20101;-62
2024/02/11 02:45:25;;;;;;;25.90;12.93;;;;;;;-10.53;55.61;100204.41;5048693;28;20120;-63
2024/02/11 02:47:51;;;;;;;31.45;13.35;;;;;;;-10.41;54.85;100207.97;5051605;28;20140;-61
2024/02/11 02:50:17;;;;;;;27.88;13.02;;;;;;;-10.82;55.27;100155.78;5050032;28;20169;-62
2024/02/11 02:52:44;;;;;;;35.90;14.70;;;;;;;-10.68;55.47;100204.22;5050746;28;20136;-63
2024/02/11 02:55:10;;;;;;;28.20;13.73;;;;;;;-10.73;56.05;100200.69;5032781;28;20037;-63
2024/02/11 02:57:35;;;;;;;26.50;13.73;;;;;;;-10.73;56.35;100213.63;5098328;27;20478;-63
2024/02/11 03:00:06;;;;;;;27.02;13.27;;;;;;;-10.67;56.64;100204.25;5134735;27;20038;-64
2024/02/11 03:02:36;;;;;;;31.48;13.93;;;;;;;-10.64;56.15;100197.38;5116764;27;20027;-64
2024/02/11 03:05:05;;;;;;;29.35;12.93;;;;;;;-10.51;55.77;100199.22;5133745;27;20114;-62
2024/02/11 03:07:31;;;;;;;26.48;13.23;;;;;;;-10.43;55.68;100210.56;5127175;27;20106;-62
2024/02/11 03:09:57;;;;;;;32.53;14.38;;;;;;;-10.51;55.69;100212.16;5133658;27;20130;-62
2024/02/11 03:12:22;;;;;;;30.48;13.15;;;;;;;-10.47;55.31;100206.19;5133466;27;20114;-63
2024/02/11 03:14:49;;;;;;;25.65;10.98;;;;;;;-10.45;55.57;100211.38;5110518;27;20031;-63
2024/02/11 03:17:15;;;;;;;27.25;13.18;;;;;;;-10.60;55.69;100201.72;5134449;27;20046;-62
2024/02/11 03:19:43;;;;;;;32.28;14.00;;;;;;;-10.58;56.25;100193.13;5133130;27;20031;-64
2024/02/11 03:22:13;;;;;;;30.58;14.30;;;;;;;-10.51;56.26;100201.81;5133630;27;20114;-64
2024/02/11 03:24:39;;;;;;;22.88;11.23;;;;;;;-10.32;55.05;100208.06;5116266;27;20399;-61
2024/02/11 03:27:06;;;;;;;28.45;13.63;;;;;;;-10.50;55.68;100194.94;5089444;27;20037;-63
2024/02/11 03:29:35;;;;;;;31.67;13.63;;;;;;;-10.46;55.05;100196.69;5049583;28;20032;-62
2024/02/11 03:32:01;;;;;;;29.35;12.90;;;;;;;-10.45;55.33;100207.09;5054387;27;20028;-62
2024/02/11 03:34:27;;;;;;;29.67;13.40;;;;;;;-10.52;55.81;100200.06;5055167;27;20033;-64
2024/02/11 03:36:53;;;;;;;23.98;11.07;;;;;;;-10.37;55.35;100199.34;5049482;28;20054;-63
2024/02/11 03:39:19;;;;;;;27.50;13.25;;;;;;;-10.56;55.62;100198.31;5049466;28;20440;-61
2024/02/11 03:41:45;;;;;;;30.27;14.07;;;;;;;-10.67;56.29;100195.59;5032014;28;20431;-63
2024/02/11 03:44:11;;;;;;;29.30;14.23;;;;;;;-10.74;56.22;100186.88;5049929;28;20464;-63
2024/02/11 03:46:37;;;;;;;28.65;12.25;;;;;;;-10.50;55.60;100197.53;5050243;28;20035;-62
2024/02/11 03:49:03;;;;;;;26.50;12.52;;;;;;;-10.55;55.51;100176.75;5081884;27;20023;-62
2024/02/11 03:51:32;;;;;;;28.27;12.80;;;;;;;-10.59;55.94;100193.09;5127370;27;20072;-61
2024/02/11 03:54:01;;;;;;;28.40;13.55;;;;;;;-10.63;56.15;100202.53;5133031;27;20045;-63
2024/02/11 03:56:28;;;;;;;20.25;8.80;;;;;;;-10.49;55.64;100189.75;5116583;27;20120;-61
2024/02/11 03:58:55;;;;;;;29.00;14.07;;;;;;;-10.50;56.11;100194.94;5048805;28;20029;-62
2024/02/11 04:01:21;;;;;;;19.15;10.23;;;;;;;-10.48;56.11;100195.81;5050066;28;20449;-62
2024/02/11 04:03:47;;;;;;;29.73;13.98;;;;;;;-10.68;56.61;100199.03;5049109;28;20040;-61
2024/02/11 04:06:13;;;;;;;30.90;14.00;;;;;;;-10.66;56.68;100192.16;5049030;28;20111;-64
2024/02/11 04:08:42;;;;;;;19.90;9.95;;;;;;;-10.60;56.50;100187.06;5053661;27;20045;-61
2024/02/11 04:11:09;;;;;;;28.25;14.38;;;;;;;-10.77;56.79;100179.09;5053975;27;20047;-63
2024/02/11 04:13:36;;;;;;;24.38;11.85;;;;;;;-10.73;56.90;100186.06;5049042;28;20444;-64
2024/02/11 04:16:11;;;;;;;30.42;13.25;;;;;;;-10.78;57.26;100182.53;5048585;28;20032;-62
2024/02/11 04:18:38;;;;;;;36.28;14.63;;;;;;;-11.08;57.40;100142.50;5049191;28;20456;-62
2024/02/11 04:21:04;;;;;;;28.90;13.57;;;;;;;-10.83;57.37;100174.72;5053401;28;20364;-62
2024/02/11 04:23:32;;;;;;;33.22;13.43;;;;;;;-10.90;57.22;100167.72;5029144;28;20033;-62
2024/02/11 04:26:01;;;;;;;34.80;13.30;;;;;;;-10.90;57.18;100193.59;5028484;28;20027;-63
2024/02/11 04:28:26;;;;;;;28.08;13.80;;;;;;;-10.95;57.45;100179.75;5038215;28;20033;-64
2024/02/11 04:30:52;;;;;;;26.85;13.73;;;;;;;-11.01;57.56;100188.28;5048354;28;20039;-63
2024/02/11 04:33:20;;;;;;;33.47;14.52;;;;;;;-11.05;57.88;100172.72;5031649;28;20064;-62
2024/02/11 04:35:47;;;;;;;29.00;14.63;;;;;;;-11.08;58.16;100180.44;5047847;28;20033;-63
2024/02/11 04:38:12;;;;;;;36.58;14.57;;;;;;;-11.05;58.21;100185.66;5048079;28;20085;-62
2024/02/11 04:40:39;;;;;;;37.08;15.20;;;;;;;-11.05;58.05;100188.25;5047632;28;20033;-63
2024/02/11 04:43:05;;;;;;;29.52;13.70;;;;;;;-10.97;57.77;100195.25;5048442;28;20452;-63
2024/02/11 04:45:30;;;;;;;27.73;12.73;;;;;;;-10.87;57.50;100183.28;5048360;28;20049;-62
2024/02/11 04:48:02;;;;;;;35.10;15.43;;;;;;;-10.97;57.64;100194.38;5048005;28;20120;-62
2024/02/11 04:50:30;;;;;;;33.17;14.32;;;;;;;-11.03;57.61;100189.13;5048812;28;20540;-63
2024/02/11 04:52:58;;;;;;;26.20;10.23;;;;;;;-11.00;57.85;100196.91;5049684;27;20044;-64
2024/02/11 04:55:37;;;;;;;31.70;12.63;;;;;;;-11.02;57.80;100196.03;5048037;28;20033;-61
2024/02/11 04:58:07;;;;;;;29.45;9.90;;;;;;;-11.02;57.54;100193.44;5031282;28;20029;-63
2024/02/11 05:00:36;;;;;;;36.95;14.40;;;;;;;-11.17;58.20;100194.97;5048318;28;20471;-63
2024/02/11 05:03:06;;;;;;;25.92;12.00;;;;;;;-11.57;58.26;100141.00;5028937;28;20112;-63
2024/02/11 05:05:34;;;;;;;30.58;13.45;;;;;;;-11.11;58.12;100195.03;5012309;28;20086;-62
2024/02/11 05:08:02;;;;;;;20.85;10.23;;;;;;;-11.28;57.98;100168.09;5032126;28;20052;-64
2024/02/11 05:10:33;;;;;;;29.23;13.27;;;;;;;-11.14;58.02;100196.72;5051330;28;20065;-65
2024/02/11 05:13:04;;;;;;;34.72;14.07;;;;;;;-11.20;58.47;100200.09;5051667;28;20025;-63
2024/02/11 05:15:37;;;;;;;29.15;12.35;;;;;;;-10.93;57.73;100209.06;5051935;28;20440;-65
2024/02/11 05:18:04;;;;;;;31.02;13.60;;;;;;;-11.33;58.40;100182.66;5052076;28;20444;-63
2024/02/11 05:20:31;;;;;;;30.00;12.95;;;;;;;-11.22;58.54;100194.03;5051033;28;20452;-65
2024/02/11 05:22:59;;;;;;;34.72;13.23;;;;;;;-11.43;58.65;100159.28;5052294;28;20029;-62
2024/02/11 05:25:26;;;;;;;25.77;12.50;;;;;;;-10.96;57.96;100217.69;5051017;28;20032;-62
2024/02/11 05:27:56;;;;;;;23.08;11.57;;;;;;;-10.97;57.98;100202.13;5050765;28;20551;-64
2024/02/11 05:30:24;;;;;;;30.30;13.57;;;;;;;-11.02;58.39;100198.63;5050772;28;20085;-64
2024/02/11 05:32:51;;;;;;;27.80;12.25;;;;;;;-10.94;57.87;100207.34;5052388;28;20177;-63
2024/02/11 05:35:17;;;;;;;28.85;12.32;;;;;;;-10.87;57.86;100200.53;5050865;28;20348;-64
2024/02/11 05:37:46;;;;;;;31.83;13.07;;;;;;;-10.70;57.63;100214.56;5050330;28;20028;-65
2024/02/11 05:40:13;;;;;;;26.00;12.70;;;;;;;-10.47;57.49;100205.31;5034561;28;20468;-65
2024/02/11 05:42:40;;;;;;;26.25;12.60;;;;;;;-10.22;56.75;100193.47;5034060;28;20456;-67
2024/02/11 05:45:06;;;;;;;27.58;11.20;;;;;;;-10.13;56.87;100184.91;5051168;28;20104;-68
2024/02/11 05:47:32;;;;;;;28.13;12.27;;;;;;;-10.00;55.92;100173.81;5050252;28;20033;-67
2024/02/11 05:49:59;;;;;;;20.30;10.15;;;;;;;-9.75;55.25;100183.53;5034918;28;20085;-74
2024/02/11 05:52:25;;;;;;;26.63;12.65;;;;;;;-9.18;55.12;100175.28;5051124;28;20037;-74
2024/02/11 05:54:50;;;;;;;24.38;11.10;;;;;;;-8.14;53.53;100173.03;5033918;28;20132;-73
2024/02/11 05:57:16;;;;;;;20.73;11.07;;;;;;;-6.41;50.37;100178.78;5034138;28;20025;-72
2024/02/11 05:59:42;;;;;;;25.75;12.13;;;;;;;-4.61;46.57;100170.22;5051391;28;20036;-73
2024/02/11 06:02:07;;;;;;;26.30;11.23;;;;;;;-3.09;43.44;100161.75;5050325;28;20064;-73
2024/02/11 06:04:33;;;;;;;23.90;11.35;;;;;;;-1.12;40.05;100166.94;5033213;28;20045;-74
2024/02/11 06:06:58;;;;;;;21.58;10.70;;;;;;;0.42;37.32;100157.97;5051411;28;20036;-76
2024/02/11 06:09:24;;;;;;;24.65;11.15;;;;;;;-0.47;36.97;100162.50;5051143;28;20033;-76
2024/02/11 06:11:52;;;;;;;24.98;12.20;;;;;;;-0.83;37.71;100130.25;5050676;28;20361;-77
2024/02/11 06:14:19;;;;;;;22.27;11.40;;;;;;;-0.33;36.62;100166.47;5050206;28;20348;-76
2024/02/11 06:16:45;;;;;;;24.15;11.18;;;;;;;-1.12;36.64;100168.69;5033782;28;20037;-76
2024/02/11 06:19:10;;;;;;;23.40;11.55;;;;;;;-2.43;38.83;100163.94;5051241;28;20117;-76
2024/02/11 06:21:36;;;;;;;20.42;10.15;;;;;;;-2.98;39.86;100171.16;5049821;28;20492;-61
2024/02/11 06:24:05;;;;;;;21.00;10.98;;;;;;;-3.59;41.24;100161.75;5050595;28;20132;-65
2024/02/11 06:26:30;;;;;;;24.48;10.45;;;;;;;-3.55;41.22;100166.03;5050339;28;20030;-67
2024/02/11 06:28:58;;;;;;;23.13;10.85;;;;;;;-3.37;41.13;100164.88;5051421;28;20032;-69
2024/02/11 06:31:24;;;;;;;21.17;10.98;;;;;;;-2.71;40.36;100140.03;5051423;28;20147;-71
2024/02/11 06:33:51;;;;;;;22.10;10.63;;;;;;;-1.97;38.77;100164.63;5050095;28;20109;-71
2024/02/11 06:36:16;;;;;;;19.50;10.40;;;;;;;-0.70;36.77;100154.41;5050680;28;20033;-71
2024/02/11 06:38:44;;;;;;;24.05;10.98;;;;;;;0.30;34.50;100153.09;5051372;28;20044;-69
2024/02/11 06:41:09;;;;;;;18.83;10.80;;;;;;;0.25;35.45;100174.31;5051029;28;20064;-63
2024/02/11 06:43:35;;;;;;;23.02;11.30;;;;;;;0.14;34.44;100168.56;5049252;28;20439;-69
2024/02/11 06:46:03;;;;;;;25.00;11.52;;;;;;;0.24;34.22;100119.06;5033560;28;20398;-69
2024/02/11 06:48:29;;;;;;;22.08;9.70;;;;;;;0.83;33.77;100169.78;5050720;28;20462;-69
2024/02/11 06:50:55;;;;;;;23.63;10.57;;;;;;;1.79;31.94;100173.34;5049665;28;20067;-71
2024/02/11 06:53:20;;;;;;;21.60;10.57;;;;;;;2.92;30.46;100159.97;5050628;28;20128;-71
2024/02/11 06:55:47;;;;;;;25.48;11.43;;;;;;;3.13;30.58;100152.88;5050526;27;20029;-71
2024/02/11 06:58:13;;;;;;;22.10;11.68;;;;;;;4.16;28.47;100170.22;5050504;28;20452;-71
2024/02/11 07:00:38;;;;;;;22.25;11.13;;;;;;;4.88;27.98;100149.00;5049265;28;20044;-70
2024/02/11 07:03:05;;;;;;;19.75;10.93;;;;;;;5.62;26.89;100154.81;5039844;28;20026;-71
2024/02/11 07:05:30;;;;;;;21.67;11.52;;;;;;;4.26;27.72;100144.13;5050402;28;20036;-72
2024/02/11 07:07:59;;;;;;;17.98;11.00;;;;;;;2.92;29.71;100144.97;5049620;28;20368;-73
2024/02/11 07:10:26;;;;;;;23.60;12.93;;;;;;;1.50;30.29;100098.78;5051554;28;20036;-72
2024/02/11 07:12:52;;;;;;;23.20;11.65;;;;;;;1.85;31.09;100142.28;5054113;28;20108;-72
2024/02/11 07:15:19;;;;;;;23.52;12.57;;;;;;;3.84;29.13;100143.50;5050570;28;20170;-70
2024/02/11 07:17:44;;;;;;;22.48;11.80;;;;;;;6.63;26.69;100088.00;5049260;28;20025;-70
2024/02/11 07:20:16;;;;;;;20.17;11.50;;;;;;;9.08;23.28;100135.47;5050691;28;20456;-70
2024/02/11 07:22:43;;;;;;;21.92;12.50;;;;;;;9.98;22.38;100130.94;5049776;28;20036;-69
2024/02/11 07:25:09;;;;;;;18.50;11.63;;;;;;;10.94;21.88;100134.50;5050292;28;20081;-68
2024/02/11 07:27:35;;;;;;;16.38;11.90;;;;;;;10.51;22.02;100125.28;5052024;28;20032;-68
2024/02/11 07:30:01;;;;;;;17.83;11.85;;;;;;;8.11;23.23;100127.66;5054344;28;20387;-69
2024/02/11 07:32:31;;;;;;;21.02;11.80;;;;;;;5.96;25.57;100129.06;5056288;28;20036;-67
2024/02/11 07:34:57;;;;;;;17.25;12.15;;;;;;;3.76;27.79;100125.31;5059041;28;20035;-70
2024/02/11 07:37:23;;;;;;;18.25;12.20;;;;;;;1.90;30.52;100085.78;5063335;28;20033;-69
2024/02/11 07:39:49;;;;;;;22.13;11.65;;;;;;;0.82;32.35;100134.66;5067059;28;20025;-72
2024/02/11 07:42:15;;;;;;;19.35;11.35;;;;;;;-0.01;34.25;100147.06;5056695;28;20121;-66
2024/02/11 07:44:41;;;;;;;20.80;11.68;;;;;;;-0.71;35.50;100134.28;5050882;28;20033;-67
2024/02/11 07:47:07;;;;;;;18.20;11.23;;;;;;;-1.04;35.24;100146.53;5050573;28;20040;-65
2024/02/11 07:49:34;;;;;;;18.48;9.85;;;;;;;-1.92;36.58;100138.28;5050006;28;20040;-63
2024/02/11 07:51:59;;;;;;;17.45;9.32;;;;;;;-2.41;37.68;100127.16;5050089;28;20123;-65
2024/02/11 07:54:25;;;;;;;18.73;10.82;;;;;;;-2.94;39.25;100144.00;5050107;28;20108;-65
2024/02/11 07:56:53;;;;;;;20.27;10.70;;;;;;;-3.37;39.80;100119.50;5050553;27;20028;-68
2024/02/11 07:59:19;;;;;;;22.90;10.68;;;;;;;-3.53;40.53;100145.09;5050258;28;20111;-66
2024/02/11 08:01:47;;;;;;;20.65;10.85;;;;;;;-3.67;40.72;100148.78;5049332;28;20036;-66
2024/02/11 08:04:16;;;;;;;16.13;9.85;;;;;;;-3.88;41.68;100144.78;5049334;28;20468;-67
2024/02/11 08:06:43;;;;;;;18.38;10.60;;;;;;;-3.96;41.71;100157.13;5049109;28;20029;-66
2024/02/11 08:09:09;;;;;;;20.33;10.05;;;;;;;-4.12;41.78;100156.47;5047761;28;20234;-69
2024/02/11 08:11:36;;;;;;;19.85;10.68;;;;;;;-4.33;42.32;100145.47;5048372;28;20044;-67
2024/02/11 08:14:01;;;;;;;20.15;10.25;;;;;;;-4.43;43.02;100156.91;5048249;28;20044;-68
2024/02/11 08:16:27;;;;;;;18.95;10.20;;;;;;;-4.57;43.66;100138.81;5047463;28;20037;-69
2024/02/11 08:18:56;;;;;;;21.15;11.15;;;;;;;-4.61;43.90;100130.13;5047898;28;20036;-68
2024/02/11 08:21:21;;;;;;;22.33;10.60;;;;;;;-4.63;44.06;100129.28;5048074;28;20037;-70
2024/02/11 08:23:48;;;;;;;18.42;10.32;;;;;;;-4.67;44.09;100128.50;5048631;28;20136;-68
2024/02/11 08:26:13;;;;;;;20.33;9.18;;;;;;;-4.51;43.87;100150.06;5049409;28;20121;-67
2024/02/11 08:28:39;;;;;;;20.58;10.45;;;;;;;-5.06;44.80;100086.31;5049353;28;20029;-64
2024/02/11 08:31:04;;;;;;;23.65;11.00;;;;;;;-5.02;45.82;100128.94;5042019;28;20068;-56
2024/02/11 08:33:30;;;;;;;17.85;8.93;;;;;;;-4.92;45.61;100133.13;5042094;28;20029;-57
2024/02/11 08:35:56;;;;;;;19.77;9.95;;;;;;;-5.01;45.72;100128.03;5039934;28;20094;-57
2024/02/11 08:38:22;;;;;;;22.58;10.38;;;;;;;-4.82;45.81;100140.00;5041440;28;20064;-59
2024/02/11 08:40:48;;;;;;;19.20;10.77;;;;;;;-4.63;45.60;100134.50;5038149;28;20133;-57
2024/02/11 08:43:14;;;;;;;20.67;10.25;;;;;;;-4.50;46.08;100124.75;5041800;28;20026;-55
2024/02/11 08:45:40;;;;;;;22.40;10.40;;;;;;;-4.40;45.45;100125.50;5040128;28;20029;-63
2024/02/11 08:48:06;;;;;;;22.35;10.23;;;;;;;-4.26;46.05;100126.19;5041620;28;20409;-59
2024/02/11 08:50:31;;;;;;;18.98;10.35;;;;;;;-4.21;45.72;100119.13;5040878;28;20056;-62
2024/02/11 08:52:57;;;;;;;21.38;9.68;;;;;;;-4.16;45.43;100118.19;5040655;28;20037;-57
2024/02/11 08:55:22;;;;;;;19.67;10.10;;;;;;;-4.16;46.34;100118.19;5037019;28;20040;-61
2024/02/11 08:57:48;;;;;;;19.08;9.75;;;;;;;-4.39;45.51;100098.47;5030393;28;20075;-59
2024/02/11 09:00:16;;;;;;;19.15;9.85;;;;;;;-4.09;46.03;100119.84;5092775;27;20450;-54
2024/02/11 09:02:42;;;;;;;20.23;9.93;;;;;;;-4.00;45.97;100119.69;5136549;27;20061;-62
2024/02/11 09:05:08;;;;;;;21.67;10.07;;;;;;;-3.95;45.76;100123.09;5136661;27;20443;-62
2024/02/11 09:07:37;;;;;;;18.02;10.10;;;;;;;-4.02;46.19;100124.06;5135240;27;20043;-60
2024/02/11 09:10:05;;;;;;;17.77;8.80;;;;;;;-4.36;46.38;100072.28;5136360;27;20129;-60
2024/02/11 09:12:31;;;;;;;15.55;9.85;;;;;;;-4.30;46.51;100118.41;5135438;27;20019;-61
2024/02/11 09:14:56;;;;;;;20.10;10.05;;;;;;;-4.56;47.39;100098.72;5134810;27;20019;-61
2024/02/11 09:17:22;;;;;;;19.90;10.20;;;;;;;-4.72;47.81;100096.31;5136435;27;20049;-59
2024/02/11 09:19:49;;;;;;;21.35;10.05;;;;;;;-4.97;48.04;100064.44;5080820;27;20068;-63
2024/02/11 09:22:15;;;;;;;19.10;9.77;;;;;;;-4.62;47.66;100087.47;5051782;28;20485;-63
2024/02/11 09:24:41;;;;;;;18.00;8.38;;;;;;;-4.53;47.56;100086.50;5056982;27;20033;-63
2024/02/11 09:27:10;;;;;;;21.50;10.20;;;;;;;-4.56;48.30;100088.28;5055986;27;20482;-59
2024/02/11 09:29:36;;;;;;;21.05;10.38;;;;;;;-4.65;48.39;100094.47;5050451;28;20040;-63
2024/02/11 09:32:03;;;;;;;19.58;9.30;;;;;;;-4.65;48.62;100078.81;5050814;28;20048;-62
2024/02/11 09:34:29;;;;;;;17.70;10.32;;;;;;;-4.52;49.14;100084.72;5108816;27;20028;-63
2024/02/11 09:36:55;;;;;;;18.50;9.10;;;;;;;-4.41;48.56;100085.44;5135891;27;20090;-62
2024/02/11 09:39:20;;;;;;;19.98;9.32;;;;;;;-4.34;48.38;100091.41;5129182;27;20027;-61
2024/02/11 09:41:46;;;;;;;17.17;9.65;;;;;;;-4.36;48.34;100077.50;5135083;27;20035;-61
2024/02/11 09:44:15;;;;;;;18.58;9.38;;;;;;;-4.60;49.14;100029.94;5117034;27;20376;-63
2024/02/11 09:46:41;;;;;;;19.10;9.38;;;;;;;-4.16;48.74;100086.81;5041335;28;20403;-66
2024/02/11 09:49:09;;;;;;;19.90;9.88;;;;;;;-4.15;48.33;100085.91;5020039;28;20380;-68
2024/02/11 09:51:36;;;;;;;23.30;12.40;;;;;;;-4.36;48.56;100081.00;5048379;28;20045;-63
2024/02/11 09:54:05;;;;;;;23.38;12.32;;;;;;;-4.43;49.24;100078.50;5017794;28;20037;-64
2024/02/11 09:56:31;;;;;;;20.67;10.38;;;;;;;-4.23;48.37;100081.69;5030526;28;20026;-62
2024/02/11 09:58:57;;;;;;;22.63;11.90;;;;;;;-4.11;48.68;100082.34;5055319;27;20476;-63
2024/02/11 10:01:23;;;;;;;19.10;11.10;;;;;;;-4.56;49.20;100017.72;5061725;27;20041;-63
2024/02/11 10:03:57;;;;;;;21.52;10.65;;;;;;;-4.32;49.50;100079.22;5051309;28;20461;-63
2024/02/11 10:06:43;;;;;;;20.00;11.25;;;;;;;-4.18;49.66;100074.63;5051235;28;20037;-63
2024/02/11 10:09:12;;;;;;;21.15;10.30;;;;;;;-4.05;48.51;100087.50;5050894;28;20106;-63
2024/02/11 10:11:39;;;;;;;24.10;11.15;;;;;;;-3.96;48.70;100074.28;5034591;28;20028;-64
2024/02/11 10:14:09;;;;;;;21.15;11.32;;;;;;;-3.75;48.18;100061.72;5056667;27;20025;-63
2024/02/11 10:16:35;;;;;;;20.13;10.65;;;;;;;-3.52;47.43;100024.63;5051141;28;20033;-64
2024/02/11 10:19:01;;;;;;;18.52;9.93;;;;;;;-3.23;46.83;100066.84;5102363;27;20080;-63
2024/02/11 10:21:27;;;;;;;20.88;11.20;;;;;;;-3.22;46.67;100068.56;5134980;27;20150;-66
2024/02/11 10:23:54;;;;;;;19.02;9.85;;;;;;;-3.25;47.34;100076.50;5070491;28;20129;-63
2024/02/11 10:26:20;;;;;;;25.25;11.52;;;;;;;-3.19;47.37;100071.13;5040333;28;20026;-62
2024/02/11 10:28:49;;;;;;;19.95;11.15;;;;;;;-2.98;46.35;100079.44;5040345;28;20033;-63
2024/02/11 10:31:15;;;;;;;22.95;10.27;;;;;;;-3.69;47.26;99956.06;5041464;28;20025;-64
2024/02/11 10:33:41;;;;;;;16.80;9.50;;;;;;;-2.85;46.92;100085.31;5023541;28;20102;-63
2024/02/11 10:36:08;;;;;;;17.05;9.80;;;;;;;-3.00;47.27;100081.25;5039281;28;20026;-63
2024/02/11 10:38:34;;;;;;;24.05;11.18;;;;;;;-3.26;46.77;100038.13;5089191;27;20118;-66
2024/02/11 10:41:03;;;;;;;24.05;10.73;;;;;;;-2.88;46.02;100088.88;5134897;27;20034;-67
2024/02/11 10:43:36;;;;;;;27.92;11.35;;;;;;;-3.23;46.80;100066.84;5083595;27;20429;-68
2024/02/11 10:46:02;;;;;;;21.10;10.60;;;;;;;-3.34;46.87;100067.06;5038401;28;20034;-66
2024/02/11 10:48:28;;;;;;;20.50;11.05;;;;;;;-3.37;47.09;100070.63;5029700;28;20037;-67
2024/02/11 10:51:13;;;;;;;18.20;9.40;;;;;;;-3.30;47.38;100078.34;5030447;28;20045;-67
2024/02/11 10:53:45;;;;;;;23.77;10.38;;;;;;;-3.19;47.14;100084.22;5077256;27;20047;-69
2024/02/11 10:56:14;;;;;;;20.13;10.23;;;;;;;-3.20;47.07;100064.16;5134368;27;20069;-67
2024/02/11 10:58:51;;;;;;;20.75;10.88;;;;;;;-3.29;48.22;100061.75;5068432;27;20085;-67
2024/02/11 11:01:20;;;;;;;20.50;10.05;;;;;;;-3.20;47.62;100078.16;5050308;28;20048;-66
2024/02/11 11:03:49;;;;;;;20.77;10.50;;;;;;;-3.04;47.76;100077.81;5103629;27;20055;-67
2024/02/11 11:06:18;;;;;;;13.98;7.18;;;;;;;-2.71;46.83;100067.53;5134026;27;20088;-68